TAF and METAR

Could not understand the following METAR

YBDV 230300Z AUTO 14014KT //// // ////// 39/10 Q1011
No TAF available for Birdsville Airport
Birdsville Airport in Australia at 47m

Latest 5 airports